createdAt,value
2022-12-25T00:00:00.185Z,97.70
2022-12-25T00:02:29.985Z,97.52
2022-12-25T00:04:56.490Z,97.80
2022-12-25T00:07:24.151Z,97.48
2022-12-25T00:09:53.401Z,97.68
2022-12-25T00:12:21.257Z,97.57
2022-12-25T00:14:48.312Z,97.67
2022-12-25T00:17:15.361Z,97.69
2022-12-25T00:19:43.576Z,97.65
2022-12-25T00:22:10.463Z,97.51
2022-12-25T00:24:37.809Z,97.70
2022-12-25T00:27:04.800Z,97.47
2022-12-25T00:29:32.630Z,97.58
2022-12-25T00:31:59.747Z,97.60
2022-12-25T00:34:26.637Z,97.59
2022-12-25T00:36:53.253Z,97.52
2022-12-25T00:39:20.503Z,97.47
2022-12-25T00:42:05.711Z,97.67
2022-12-25T00:44:34.089Z,97.48
2022-12-25T00:47:00.824Z,97.76
2022-12-25T00:49:29.822Z,97.60
2022-12-25T00:51:57.167Z,97.34
2022-12-25T00:54:23.912Z,97.50
2022-12-25T00:56:52.147Z,97.38
2022-12-25T00:59:18.620Z,97.46
2022-12-25T01:01:45.460Z,97.47
2022-12-25T01:04:12.607Z,97.33
2022-12-25T01:06:40.119Z,97.47
2022-12-25T01:09:25.779Z,97.50
2022-12-25T01:11:55.591Z,97.51
2022-12-25T01:14:23.480Z,97.42
2022-12-25T01:16:52.722Z,97.39
2022-12-25T01:19:19.332Z,97.40
2022-12-25T01:21:46.410Z,97.41
2022-12-25T01:24:13.860Z,97.37
2022-12-25T01:26:42.305Z,97.52
2022-12-25T01:29:10.132Z,97.39
2022-12-25T01:31:37.158Z,97.42
2022-12-25T01:34:04.423Z,97.30
2022-12-25T01:36:30.999Z,97.28
2022-12-25T01:38:57.670Z,97.46
2022-12-25T01:41:26.141Z,97.33
2022-12-25T01:44:05.305Z,97.32
2022-12-25T01:46:35.026Z,97.29
2022-12-25T01:49:24.986Z,97.34
2022-12-25T01:52:00.301Z,97.37
2022-12-25T01:54:33.575Z,97.46
2022-12-25T01:57:04.412Z,97.59
2022-12-25T01:59:31.238Z,97.50
2022-12-25T02:02:01.292Z,97.50
2022-12-25T02:04:43.139Z,97.34
2022-12-25T02:07:24.690Z,97.39
2022-12-25T02:09:52.524Z,97.48
2022-12-25T02:12:46.163Z,97.28
2022-12-25T02:15:18.222Z,97.27
2022-12-25T02:18:03.383Z,97.29
2022-12-25T02:20:36.586Z,97.42
2022-12-25T02:23:45.014Z,97.48
2022-12-25T02:26:22.542Z,97.38
2022-12-25T02:29:05.715Z,97.41
2022-12-25T02:31:45.799Z,97.45
2022-12-25T02:34:31.941Z,97.52
2022-12-25T02:37:08.065Z,97.48
2022-12-25T02:40:12.985Z,97.36
2022-12-25T02:43:18.322Z,97.49
2022-12-25T02:46:19.090Z,97.46
2022-12-25T02:49:11.243Z,97.46
2022-12-25T02:52:01.753Z,97.67
2022-12-25T02:55:00.674Z,97.60
2022-12-25T02:57:50.986Z,97.64
2022-12-25T03:00:36.714Z,97.72
2022-12-25T03:03:27.278Z,97.72
2022-12-25T03:06:18.081Z,97.57
2022-12-25T03:08:50.363Z,97.50
2022-12-25T03:11:32.534Z,97.81
2022-12-25T03:14:23.831Z,97.79
2022-12-25T03:16:55.001Z,97.77
2022-12-25T03:19:43.682Z,97.78
2022-12-25T03:22:37.541Z,97.76
2022-12-25T03:25:23.885Z,97.76
2022-12-25T03:27:56.135Z,97.78
2022-12-25T03:30:46.616Z,97.83
2022-12-25T03:33:46.204Z,97.90
2022-12-25T03:36:20.762Z,97.84
2022-12-25T03:39:37.344Z,97.75
2022-12-25T03:42:25.134Z,97.69
2022-12-25T03:45:19.868Z,97.73
2022-12-25T03:48:09.088Z,97.62
2022-12-25T03:51:34.912Z,97.64
2022-12-25T03:54:25.204Z,97.73
2022-12-25T03:57:11.185Z,97.79
2022-12-25T03:59:57.249Z,97.73
2022-12-25T04:02:43.362Z,97.75
2022-12-25T04:05:28.942Z,97.71
2022-12-25T04:08:16.272Z,97.81
2022-12-25T04:11:03.795Z,97.34
2022-12-25T04:13:48.791Z,97.73
2022-12-25T04:16:33.887Z,97.64
2022-12-25T04:19:19.561Z,97.71
2022-12-25T04:22:04.805Z,97.56
2022-12-25T04:24:50.845Z,97.73
2022-12-25T04:27:36.263Z,97.83
2022-12-25T04:30:21.512Z,97.99
2022-12-25T04:33:15.003Z,97.67
2022-12-25T04:36:04.067Z,97.80
2022-12-25T04:38:30.553Z,97.94
2022-12-25T04:40:57.096Z,97.98
2022-12-25T04:43:27.116Z,97.70
2022-12-25T04:45:58.225Z,97.87
2022-12-25T04:48:25.925Z,97.74
2022-12-25T04:50:52.877Z,97.82
2022-12-25T04:53:22.371Z,97.73
2022-12-25T04:55:48.962Z,97.81
2022-12-25T04:58:16.210Z,97.84
2022-12-25T05:00:43.598Z,97.71
2022-12-25T05:03:10.285Z,97.68
2022-12-25T05:05:40.131Z,97.75
2022-12-25T05:08:06.963Z,97.80
2022-12-25T05:10:33.955Z,97.81
2022-12-25T05:13:01.302Z,97.78
2022-12-25T05:15:29.885Z,97.83
2022-12-25T05:17:56.378Z,97.87
2022-12-25T05:20:25.131Z,97.78
2022-12-25T05:22:52.489Z,97.76
2022-12-25T05:25:20.151Z,97.87
2022-12-25T05:27:52.084Z,97.60
2022-12-25T05:30:22.515Z,97.66
2022-12-25T05:32:49.243Z,97.94
2022-12-25T05:35:16.008Z,97.76
2022-12-25T05:37:45.464Z,97.46
2022-12-25T05:40:12.135Z,97.66
2022-12-25T05:42:38.938Z,97.80
2022-12-25T05:45:08.554Z,97.82
2022-12-25T05:47:35.599Z,97.74
2022-12-25T05:50:02.795Z,97.79
2022-12-25T05:52:34.103Z,97.79
2022-12-25T05:55:01.078Z,97.81
2022-12-25T05:57:32.106Z,97.85
2022-12-25T05:59:59.711Z,97.96
2022-12-25T06:02:31.548Z,97.77
2022-12-25T06:05:00.466Z,97.88
2022-12-25T06:07:29.753Z,97.65
2022-12-25T06:09:57.818Z,97.88
2022-12-25T06:12:24.541Z,97.85
2022-12-25T06:14:53.297Z,97.55
2022-12-25T06:17:20.178Z,97.87
2022-12-25T06:19:47.143Z,97.49
2022-12-25T06:22:15.070Z,97.66
2022-12-25T06:24:42.049Z,97.67
2022-12-25T06:27:09.793Z,97.80
2022-12-25T06:29:36.916Z,97.62
2022-12-25T06:32:04.649Z,97.63
2022-12-25T06:34:31.669Z,97.65
2022-12-25T06:37:00.196Z,97.82
2022-12-25T06:39:27.061Z,97.81
2022-12-25T06:41:53.607Z,97.74
2022-12-25T06:44:21.035Z,97.71
2022-12-25T06:46:48.667Z,97.62
2022-12-25T06:49:18.527Z,97.64
2022-12-25T06:51:45.314Z,97.79
2022-12-25T06:54:13.759Z,97.67
2022-12-25T06:56:40.383Z,97.88
2022-12-25T06:59:13.722Z,97.88
2022-12-25T07:01:56.890Z,97.79
2022-12-25T07:04:32.729Z,97.86
2022-12-25T07:07:06.204Z,97.83
2022-12-25T07:09:36.044Z,97.83
2022-12-25T07:12:09.589Z,97.71
2022-12-25T07:14:37.024Z,97.83
2022-12-25T07:17:06.806Z,97.52
2022-12-25T07:19:39.685Z,97.66
2022-12-25T07:22:09.642Z,97.94
2022-12-25T07:24:36.644Z,97.60
2022-12-25T07:27:03.736Z,97.79
2022-12-25T07:29:30.696Z,97.72
2022-12-25T07:32:00.020Z,97.69
2022-12-25T07:34:27.326Z,97.66
2022-12-25T07:36:57.686Z,97.81
2022-12-25T07:39:25.945Z,97.60
2022-12-25T07:41:52.476Z,97.72
2022-12-25T07:44:19.465Z,97.53
2022-12-25T07:46:47.942Z,97.65
2022-12-25T07:49:17.246Z,97.51
2022-12-25T07:51:44.143Z,97.72
2022-12-25T07:54:10.942Z,97.49
2022-12-25T07:56:41.675Z,97.36
2022-12-25T07:59:09.845Z,97.48
2022-12-25T08:01:37.043Z,97.73
2022-12-25T08:04:04.134Z,97.53
2022-12-25T08:06:33.923Z,97.65
2022-12-25T08:09:18.623Z,97.34
2022-12-25T08:11:46.981Z,97.32
2022-12-25T08:14:14.182Z,97.54
2022-12-25T08:16:42.360Z,97.38
2022-12-25T08:19:09.569Z,97.43
2022-12-25T08:21:37.123Z,97.33
2022-12-25T08:24:05.179Z,97.50
2022-12-25T08:26:32.284Z,97.37
2022-12-25T08:29:03.658Z,97.41
2022-12-25T08:31:32.062Z,97.39
2022-12-25T08:34:02.877Z,97.25
2022-12-25T08:36:29.850Z,97.50
2022-12-25T08:39:02.752Z,97.17
2022-12-25T08:41:31.035Z,97.43
2022-12-25T08:43:58.594Z,97.39
2022-12-25T08:46:26.263Z,97.20
2022-12-25T08:48:53.325Z,97.33
2022-12-25T08:51:21.995Z,97.28
2022-12-25T08:53:51.475Z,97.61
2022-12-25T08:56:18.996Z,97.37
2022-12-25T08:58:45.946Z,97.58
2022-12-25T09:01:16.154Z,97.39
2022-12-25T09:03:46.201Z,97.42
2022-12-25T09:06:16.154Z,97.49
2022-12-25T09:08:48.626Z,97.46
2022-12-25T09:11:18.390Z,97.29
2022-12-25T09:13:45.652Z,97.53
2022-12-25T09:16:18.532Z,97.37
2022-12-25T09:18:49.717Z,97.31
2022-12-25T09:21:17.401Z,97.39
2022-12-25T09:23:47.544Z,97.52
2022-12-25T09:26:17.324Z,97.44
2022-12-25T09:28:50.877Z,97.47
2022-12-25T09:31:19.736Z,97.42
2022-12-25T09:33:46.313Z,97.49
2022-12-25T09:36:15.752Z,97.46
2022-12-25T09:38:43.546Z,97.40
2022-12-25T09:41:32.226Z,97.32
2022-12-25T09:44:12.803Z,97.34
2022-12-25T09:46:43.263Z,97.20
2022-12-25T09:49:25.218Z,97.22
2022-12-25T09:51:59.345Z,97.37
2022-12-25T09:54:35.174Z,97.40
2022-12-25T09:57:02.109Z,97.40
2022-12-25T09:59:30.666Z,97.26
2022-12-25T10:02:19.438Z,97.20
2022-12-25T10:05:16.893Z,97.28
2022-12-25T10:07:55.348Z,97.17
2022-12-25T10:10:42.768Z,97.16
2022-12-25T10:13:43.367Z,97.25
2022-12-25T10:16:43.280Z,97.18
2022-12-25T10:19:42.571Z,96.92
2022-12-25T10:22:30.373Z,97.00
2022-12-25T10:25:01.866Z,97.12
2022-12-25T10:27:38.836Z,97.10
2022-12-25T10:30:19.917Z,97.18
2022-12-25T10:32:47.502Z,97.01
2022-12-25T10:35:24.575Z,97.13
2022-12-25T10:38:00.675Z,97.16
2022-12-25T10:40:41.412Z,97.26
2022-12-25T10:43:22.097Z,97.31
2022-12-25T10:45:49.825Z,97.14
2022-12-25T10:48:23.855Z,97.30
2022-12-25T10:50:51.170Z,97.36
2022-12-25T10:53:29.073Z,97.40
2022-12-25T10:55:59.609Z,97.27
2022-12-25T10:58:27.150Z,97.25
2022-12-25T11:01:06.208Z,97.26
2022-12-25T11:03:39.991Z,97.62
2022-12-25T11:06:26.758Z,97.34
2022-12-25T11:08:59.595Z,97.53
2022-12-25T11:11:28.234Z,97.46
2022-12-25T11:13:59.288Z,97.52
2022-12-25T11:16:30.549Z,97.83
2022-12-25T11:18:58.432Z,97.56
2022-12-25T11:21:28.433Z,97.44
2022-12-25T11:24:01.630Z,97.62
2022-12-25T11:26:30.821Z,97.51
2022-12-25T11:28:58.684Z,97.52
2022-12-25T11:31:40.063Z,97.58
2022-12-25T11:34:35.385Z,97.52
2022-12-25T11:37:03.539Z,97.55
2022-12-25T11:39:33.007Z,97.48
2022-12-25T11:42:05.601Z,97.70
2022-12-25T11:44:55.950Z,97.50
2022-12-25T11:47:44.315Z,97.68
2022-12-25T11:50:20.431Z,97.75
2022-12-25T11:52:48.337Z,97.70
2022-12-25T11:55:45.321Z,97.61
2022-12-25T11:58:24.478Z,97.53
2022-12-25T12:00:54.977Z,97.55
2022-12-25T12:03:35.965Z,97.63
2022-12-25T12:06:09.332Z,97.58
2022-12-25T12:08:38.928Z,97.41
2022-12-25T12:11:37.935Z,97.55
2022-12-25T12:14:43.493Z,97.56
2022-12-25T12:17:15.766Z,97.53
2022-12-25T12:19:42.890Z,97.55
2022-12-25T12:22:28.532Z,97.70
2022-12-25T12:25:07.912Z,97.31
2022-12-25T12:27:43.269Z,97.35
2022-12-25T12:30:27.303Z,97.23
2022-12-25T12:32:59.214Z,97.38
2022-12-25T12:35:30.741Z,97.32
2022-12-25T12:38:06.809Z,97.42
2022-12-25T12:40:51.102Z,97.48
2022-12-25T12:43:55.035Z,97.44
2022-12-25T12:46:35.772Z,97.37
2022-12-25T12:49:20.052Z,97.51
2022-12-25T12:51:46.757Z,97.35
2022-12-25T12:54:26.714Z,97.50
2022-12-25T12:57:22.022Z,97.20
2022-12-25T12:59:53.617Z,97.41
2022-12-25T13:03:03.305Z,97.37
2022-12-25T13:06:01.516Z,97.41
2022-12-25T13:08:50.264Z,97.70
2022-12-25T13:11:23.856Z,97.46
2022-12-25T13:13:53.624Z,97.67
2022-12-25T13:16:33.750Z,97.45
2022-12-25T13:19:07.269Z,97.45
2022-12-25T13:21:34.714Z,97.69
2022-12-25T13:24:04.587Z,97.54
2022-12-25T13:26:31.150Z,97.35
2022-12-25T13:28:57.700Z,97.89
2022-12-25T13:31:31.095Z,97.64
2022-12-25T13:34:24.556Z,97.79
2022-12-25T13:36:51.175Z,97.72
2022-12-25T13:39:18.459Z,97.57
2022-12-25T13:42:07.800Z,97.76
2022-12-25T13:44:47.972Z,97.78
2022-12-25T13:47:23.085Z,97.73
2022-12-25T13:49:52.825Z,97.82
2022-12-25T13:52:44.767Z,97.82
2022-12-25T13:55:18.932Z,97.75
2022-12-25T13:57:57.905Z,97.86
2022-12-25T14:00:31.160Z,97.83
2022-12-25T14:03:00.682Z,97.86
2022-12-25T14:05:42.180Z,97.75
2022-12-25T14:08:16.440Z,97.94
2022-12-25T14:10:46.143Z,97.90
2022-12-25T14:13:15.658Z,98.09
2022-12-25T14:15:45.541Z,98.01
2022-12-25T14:18:18.118Z,97.96
2022-12-25T14:21:09.440Z,98.04
2022-12-25T14:23:42.428Z,98.10
2022-12-25T14:26:15.987Z,98.35
2022-12-25T14:28:46.512Z,97.99
2022-12-25T14:31:13.153Z,98.14
2022-12-25T14:33:41.639Z,98.06
2022-12-25T14:36:13.369Z,98.08
2022-12-25T14:38:42.551Z,98.27
2022-12-25T14:41:25.940Z,98.20
2022-12-25T14:43:54.782Z,98.15
2022-12-25T14:46:26.660Z,98.26
2022-12-25T14:49:21.522Z,98.43
2022-12-25T14:51:48.255Z,98.15
2022-12-25T14:54:20.333Z,98.33
2022-12-25T14:56:49.465Z,98.17
2022-12-25T14:59:24.529Z,98.33
2022-12-25T15:01:54.827Z,98.38
2022-12-25T15:04:23.643Z,98.24
2022-12-25T15:07:02.603Z,98.48
2022-12-25T15:09:30.264Z,98.20
2022-12-25T15:11:57.055Z,98.25
2022-12-25T15:14:25.770Z,98.32
2022-12-25T15:16:56.290Z,98.27
2022-12-25T15:19:36.818Z,98.37
2022-12-25T15:22:05.725Z,98.25
2022-12-25T15:24:35.072Z,98.39
2022-12-25T15:27:02.238Z,98.46
2022-12-25T15:32:21.912Z,98.58
2022-12-25T15:34:50.320Z,98.51
2022-12-25T15:37:18.220Z,98.73
2022-12-25T15:39:45.252Z,98.35
2022-12-25T15:42:18.332Z,98.44
2022-12-25T15:44:45.603Z,98.44
2022-12-25T15:47:13.460Z,98.50
2022-12-25T15:49:41.111Z,98.44
2022-12-25T15:52:10.942Z,98.73
2022-12-25T15:54:38.336Z,98.68
2022-12-25T15:57:07.546Z,98.62
2022-12-25T15:59:35.089Z,98.50
2022-12-25T16:02:03.582Z,98.52
2022-12-25T16:04:31.557Z,98.46
2022-12-25T16:06:59.834Z,98.39
2022-12-25T16:09:27.723Z,98.63
2022-12-25T16:11:54.491Z,98.76
2022-12-25T16:14:23.579Z,98.75
2022-12-25T16:16:50.883Z,98.75
2022-12-25T16:19:17.643Z,98.66
2022-12-25T16:21:47.064Z,98.65
2022-12-25T16:24:15.406Z,98.85
2022-12-25T16:26:42.874Z,98.82
2022-12-25T16:29:12.288Z,98.70
2022-12-25T16:31:41.772Z,98.67
2022-12-25T16:34:10.080Z,98.75
2022-12-25T16:36:37.466Z,98.73
2022-12-25T16:39:05.033Z,98.97
2022-12-25T16:41:31.895Z,98.77
2022-12-25T16:43:58.992Z,98.89
2022-12-25T16:46:26.010Z,98.87
2022-12-25T16:48:52.664Z,98.88
2022-12-25T16:51:20.771Z,98.85
2022-12-25T16:53:50.779Z,98.87
2022-12-25T16:56:25.687Z,98.95
2022-12-25T16:58:52.645Z,98.94
2022-12-25T17:01:22.726Z,99.09
2022-12-25T17:03:50.725Z,98.69
2022-12-25T17:06:20.720Z,98.98
2022-12-25T17:08:47.690Z,99.14
2022-12-25T17:11:15.139Z,98.80
2022-12-25T17:13:48.811Z,99.12
2022-12-25T17:16:27.368Z,98.70
2022-12-25T17:19:01.273Z,98.99
2022-12-25T17:21:29.132Z,99.07
2022-12-25T17:24:03.134Z,99.00
2022-12-25T17:26:32.875Z,99.09
2022-12-25T17:29:00.877Z,98.89
2022-12-25T17:31:28.992Z,98.89
2022-12-25T17:33:56.146Z,99.16
2022-12-25T17:36:23.170Z,98.91
2022-12-25T17:38:49.940Z,99.10
2022-12-25T17:41:20.883Z,99.13
2022-12-25T17:43:48.918Z,99.01
2022-12-25T17:46:20.353Z,99.13
2022-12-25T17:48:50.303Z,99.02
2022-12-25T17:51:21.317Z,98.97
2022-12-25T17:53:51.351Z,99.19
2022-12-25T17:56:20.200Z,98.96
2022-12-25T17:58:52.100Z,99.13
2022-12-25T18:01:19.972Z,99.06
2022-12-25T18:03:47.467Z,99.07
2022-12-25T18:06:17.463Z,98.91
2022-12-25T18:08:48.359Z,99.00
2022-12-25T18:11:21.629Z,98.81
2022-12-25T18:13:52.341Z,99.01
2022-12-25T18:16:22.415Z,99.15
2022-12-25T18:18:52.260Z,98.96
2022-12-25T18:21:22.224Z,99.06
2022-12-25T18:23:49.520Z,98.94
2022-12-25T18:26:16.797Z,98.98
2022-12-25T18:28:44.234Z,99.18
2022-12-25T18:31:20.400Z,99.17
2022-12-25T18:33:48.532Z,99.10
2022-12-25T18:36:20.256Z,98.96
2022-12-25T18:38:49.238Z,99.07
2022-12-25T18:41:17.152Z,99.06
2022-12-25T18:43:54.195Z,99.12
2022-12-25T18:46:25.752Z,99.06
2022-12-25T18:48:57.701Z,99.07
2022-12-25T18:51:28.682Z,99.12
2022-12-25T18:54:01.929Z,99.11
2022-12-25T18:56:28.983Z,99.14
2022-12-25T18:58:56.865Z,99.03
2022-12-25T19:01:26.342Z,99.09
2022-12-25T19:03:58.660Z,99.26
2022-12-25T19:06:33.660Z,99.32
2022-12-25T19:09:00.761Z,99.14
2022-12-25T19:11:28.595Z,99.29
2022-12-25T19:13:55.939Z,99.28
2022-12-25T19:16:22.904Z,99.06
2022-12-25T19:18:51.178Z,99.36
2022-12-25T19:21:17.559Z,99.27
2022-12-25T19:23:44.960Z,99.14
2022-12-25T19:26:14.349Z,99.23
2022-12-25T19:28:41.361Z,99.18
2022-12-25T19:31:09.474Z,99.13
2022-12-25T19:33:36.955Z,99.26
2022-12-25T19:36:07.160Z,99.21
2022-12-25T19:38:35.627Z,99.16
2022-12-25T19:41:08.302Z,99.31
2022-12-25T19:43:37.748Z,99.29
2022-12-25T19:46:05.396Z,99.30
2022-12-25T19:48:35.287Z,99.28
2022-12-25T19:51:02.777Z,99.26
2022-12-25T19:53:30.618Z,99.17
2022-12-25T19:58:46.590Z,99.29
2022-12-25T20:01:17.148Z,99.32
2022-12-25T20:03:48.024Z,99.14
2022-12-25T20:06:22.675Z,99.32
2022-12-25T20:08:52.708Z,99.34
2022-12-25T20:11:22.615Z,99.25
2022-12-25T20:13:52.851Z,99.24
2022-12-25T20:16:19.622Z,99.22
2022-12-25T20:18:47.033Z,99.22
2022-12-25T20:21:16.233Z,99.19
2022-12-25T20:23:44.189Z,99.14
2022-12-25T20:26:12.764Z,99.16
2022-12-25T20:28:41.651Z,99.44
2022-12-25T20:31:10.302Z,99.23
2022-12-25T20:33:37.553Z,99.40
2022-12-25T20:36:06.396Z,99.26
2022-12-25T20:38:33.997Z,99.64
2022-12-25T20:41:28.350Z,99.42
2022-12-25T20:43:55.862Z,99.40
2022-12-25T20:46:23.116Z,99.27
2022-12-25T20:48:52.528Z,99.28
2022-12-25T20:51:22.088Z,99.23
2022-12-25T20:53:49.313Z,99.24
2022-12-25T20:56:18.160Z,99.27
2022-12-25T20:58:45.535Z,99.47
2022-12-25T21:01:15.362Z,99.32
2022-12-25T21:03:43.073Z,99.37
2022-12-25T21:06:13.366Z,99.45
2022-12-25T21:08:43.463Z,99.33
2022-12-25T21:11:11.740Z,99.20
2022-12-25T21:13:40.605Z,99.39
2022-12-25T21:16:10.626Z,99.37
2022-12-25T21:18:37.528Z,99.34
2022-12-25T21:21:07.325Z,99.35
2022-12-25T21:23:35.841Z,99.32
2022-12-25T21:26:19.973Z,99.41
2022-12-25T21:28:48.861Z,99.26
2022-12-25T21:31:15.579Z,99.50
2022-12-25T21:33:59.108Z,99.37
2022-12-25T21:36:34.415Z,99.36
2022-12-25T21:39:15.815Z,99.44
2022-12-25T21:41:43.134Z,99.41
2022-12-25T21:44:10.856Z,99.35
2022-12-25T21:46:38.196Z,99.31
2022-12-25T21:49:05.128Z,99.19
2022-12-25T21:51:52.682Z,99.39
2022-12-25T21:54:22.365Z,99.42
2022-12-25T21:56:52.903Z,99.20
2022-12-25T21:59:22.087Z,99.39
2022-12-25T22:01:51.912Z,99.32
2022-12-25T22:04:23.449Z,99.31
2022-12-25T22:07:11.692Z,99.41
2022-12-25T22:09:38.917Z,99.25
2022-12-25T22:12:30.260Z,99.25
2022-12-25T22:15:07.004Z,99.28
2022-12-25T22:17:55.230Z,99.33
2022-12-25T22:20:30.925Z,99.37
2022-12-25T22:22:58.399Z,99.36
2022-12-25T22:25:25.757Z,99.43
2022-12-25T22:27:57.689Z,99.32
2022-12-25T22:30:27.687Z,99.50
2022-12-25T22:32:55.553Z,99.42
2022-12-25T22:35:23.044Z,99.55
2022-12-25T22:37:50.798Z,99.67
2022-12-25T22:40:21.406Z,99.33
2022-12-25T22:42:48.792Z,99.54
2022-12-25T22:45:15.735Z,99.42
2022-12-25T22:47:42.937Z,99.55
2022-12-25T22:50:10.939Z,99.26
2022-12-25T22:52:42.070Z,99.38
2022-12-25T22:55:09.768Z,99.45
2022-12-25T22:57:36.828Z,99.49
2022-12-25T23:00:06.011Z,99.58
2022-12-25T23:02:33.263Z,99.31
2022-12-25T23:05:03.408Z,99.45
2022-12-25T23:07:32.717Z,99.34
2022-12-25T23:09:59.251Z,99.40
2022-12-25T23:12:44.903Z,99.44
2022-12-25T23:15:12.658Z,99.37
2022-12-25T23:18:00.999Z,99.33
2022-12-25T23:20:46.474Z,99.49
2022-12-25T23:23:33.964Z,99.34
2022-12-25T23:26:10.433Z,99.50
2022-12-25T23:28:57.414Z,99.49
2022-12-25T23:31:30.659Z,99.42
2022-12-25T23:33:57.795Z,99.38
2022-12-25T23:36:31.734Z,99.56
2022-12-25T23:39:04.765Z,99.38
2022-12-25T23:41:33.992Z,99.59
2022-12-25T23:44:00.986Z,99.43
2022-12-25T23:46:27.599Z,99.39
2022-12-25T23:48:54.892Z,99.34
2022-12-25T23:51:21.902Z,99.50
2022-12-25T23:53:48.940Z,99.32
2022-12-25T23:56:18.575Z,99.53
2022-12-25T23:58:51.550Z,99.36
